createdAt,value
2019-05-20T00:00:42.765Z,100277.48
2019-05-20T00:03:12.460Z,100277.41
2019-05-20T00:05:42.465Z,100273.88
2019-05-20T00:08:12.363Z,100269.58
2019-05-20T00:10:42.122Z,100270.75
2019-05-20T00:13:11.916Z,100272.64
2019-05-20T00:15:41.750Z,100280.84
2019-05-20T00:18:11.585Z,100277.47
2019-05-20T00:20:41.262Z,100281.36
2019-05-20T00:23:10.974Z,100287.38
2019-05-20T00:25:40.747Z,100292.41
2019-05-20T00:28:10.484Z,100284.08
2019-05-20T00:30:40.443Z,100279.69
2019-05-20T00:33:10.123Z,100289.52
2019-05-20T00:35:39.885Z,100287.13
2019-05-20T00:38:09.591Z,100289.44
2019-05-20T00:40:39.278Z,100285.89
2019-05-20T00:43:09.081Z,100282.02
2019-05-20T00:45:38.857Z,100285.71
2019-05-20T00:48:08.653Z,100286.79
2019-05-20T00:50:38.628Z,100286.36
2019-05-20T00:53:08.522Z,100285.99
2019-05-20T00:55:40.467Z,100288.42
2019-05-20T00:58:10.300Z,100283.48
2019-05-20T01:00:40.980Z,100278.20
2019-05-20T01:03:10.636Z,100281.58
2019-05-20T01:05:40.478Z,100282.97
2019-05-20T01:08:10.304Z,100289.35
2019-05-20T01:10:40.061Z,100291.70
2019-05-20T01:13:09.712Z,100283.20
2019-05-20T01:15:39.591Z,100283.48
2019-05-20T01:18:09.280Z,100287.46
2019-05-20T01:20:39.061Z,100282.03
2019-05-20T01:23:08.801Z,100280.86
2019-05-20T01:25:38.666Z,100281.34
2019-05-20T01:28:08.490Z,100281.38
2019-05-20T01:30:38.174Z,100283.59
2019-05-20T01:33:13.727Z,100283.55
2019-05-20T01:35:39.355Z,100291.63
2019-05-20T01:38:09.125Z,100296.94
2019-05-20T01:40:38.869Z,100296.98
2019-05-20T01:43:08.548Z,100295.73
2019-05-20T01:45:38.341Z,100291.20
2019-05-20T01:48:08.075Z,100290.70
2019-05-20T01:50:37.811Z,100298.89
2019-05-20T01:53:07.592Z,100298.35
2019-05-20T01:55:37.273Z,100298.68
2019-05-20T01:58:07.033Z,100302.73
2019-05-20T02:00:36.877Z,100295.81
2019-05-20T02:03:06.729Z,100291.61
2019-05-20T02:05:36.374Z,100284.91
2019-05-20T02:08:06.143Z,100280.67
2019-05-20T02:10:35.837Z,100286.65
2019-05-20T02:13:05.783Z,100279.01
2019-05-20T02:15:44.028Z,100284.95
2019-05-20T02:18:13.930Z,100298.64
2019-05-20T02:20:43.755Z,100301.18
2019-05-20T02:23:16.555Z,100296.69
2019-05-20T02:25:50.480Z,100298.89
2019-05-20T02:28:20.179Z,100301.03
2019-05-20T02:30:49.942Z,100307.73
2019-05-20T02:33:19.632Z,100300.63
2019-05-20T02:35:49.380Z,100297.77
2019-05-20T02:38:19.286Z,100304.55
2019-05-20T02:40:49.089Z,100304.45
2019-05-20T02:43:18.850Z,100304.91
2019-05-20T02:45:48.663Z,100312.98
2019-05-20T02:48:18.417Z,100308.42
2019-05-20T02:50:48.157Z,100311.50
2019-05-20T02:53:17.936Z,100319.25
2019-05-20T02:55:47.984Z,100323.89
2019-05-20T02:58:17.758Z,100320.48
2019-05-20T03:00:47.499Z,100313.59
2019-05-20T03:03:17.223Z,100314.36
2019-05-20T03:05:46.909Z,100316.64
2019-05-20T03:08:16.729Z,100317.27
2019-05-20T03:10:46.410Z,100315.75
2019-05-20T03:13:16.141Z,100310.27
2019-05-20T03:15:46.042Z,100309.98
2019-05-20T03:18:15.890Z,100311.00
2019-05-20T03:20:45.634Z,100320.50
2019-05-20T03:23:15.499Z,100328.36
2019-05-20T03:25:45.492Z,100329.19
2019-05-20T03:28:15.258Z,100333.32
2019-05-20T03:30:45.442Z,100332.67
2019-05-20T03:33:15.147Z,100328.29
2019-05-20T03:35:45.269Z,100322.86
2019-05-20T03:38:15.366Z,100323.33
2019-05-20T03:40:45.035Z,100319.38
2019-05-20T03:43:14.810Z,100317.16
2019-05-20T03:45:44.689Z,100320.28
2019-05-20T03:48:14.586Z,100323.00
2019-05-20T03:50:44.372Z,100327.05
2019-05-20T03:53:14.147Z,100329.88
2019-05-20T03:55:44.639Z,100324.80
2019-05-20T03:58:14.399Z,100331.16
2019-05-20T04:00:48.598Z,100332.39
2019-05-20T04:03:18.567Z,100335.35
2019-05-20T04:05:48.395Z,100335.03
2019-05-20T04:08:18.156Z,100339.38
2019-05-20T04:10:47.928Z,100335.53
2019-05-20T04:13:17.670Z,100332.42
2019-05-20T04:15:47.460Z,100332.37
2019-05-20T04:18:17.285Z,100342.02
2019-05-20T04:20:47.129Z,100344.59
2019-05-20T04:23:17.039Z,100346.59
2019-05-20T04:25:46.843Z,100340.43
2019-05-20T04:28:16.668Z,100347.27
2019-05-20T04:30:46.559Z,100338.50
2019-05-20T04:33:17.452Z,100339.70
2019-05-20T04:35:49.842Z,100338.68
2019-05-20T04:38:18.845Z,100342.09
2019-05-20T04:40:50.145Z,100348.41
2019-05-20T04:43:19.858Z,100346.55
2019-05-20T04:45:49.698Z,100350.14
2019-05-20T04:48:19.481Z,100352.61
2019-05-20T04:50:49.295Z,100348.16
2019-05-20T04:53:18.992Z,100346.55
2019-05-20T04:55:48.805Z,100342.63
2019-05-20T04:58:18.579Z,100338.98
2019-05-20T05:00:54.767Z,100341.59
2019-05-20T05:03:24.934Z,100336.51
2019-05-20T05:05:55.022Z,100330.27
2019-05-20T05:08:25.311Z,100337.77
2019-05-20T05:10:55.777Z,100343.61
2019-05-20T05:13:26.046Z,100342.28
2019-05-20T05:15:55.932Z,100339.02
2019-05-20T05:18:25.857Z,100349.23
2019-05-20T05:20:55.813Z,100353.00
2019-05-20T05:23:26.072Z,100357.12
2019-05-20T05:25:55.856Z,100356.51
2019-05-20T05:28:25.725Z,100359.04
2019-05-20T05:30:55.596Z,100357.62
2019-05-20T05:33:25.373Z,100352.31
2019-05-20T05:35:55.294Z,100356.16
2019-05-20T05:38:25.757Z,100354.86
2019-05-20T05:40:56.026Z,100357.61
2019-05-20T05:43:25.852Z,100366.67
2019-05-20T05:45:55.513Z,100367.61
2019-05-20T05:48:25.298Z,100365.37
2019-05-20T05:50:54.943Z,100360.94
2019-05-20T05:53:24.723Z,100364.84
2019-05-20T05:55:54.394Z,100367.53
2019-05-20T05:58:24.253Z,100369.05
2019-05-20T06:00:53.905Z,100368.02
2019-05-20T06:03:23.745Z,100364.75
2019-05-20T06:06:10.276Z,100371.16
2019-05-20T06:08:24.881Z,100364.41
2019-05-20T06:10:54.635Z,100369.19
2019-05-20T06:13:24.320Z,100361.84
2019-05-20T06:15:54.672Z,100366.22
2019-05-20T06:18:24.689Z,100365.63
2019-05-20T06:20:54.702Z,100368.39
2019-05-20T06:23:24.462Z,100367.61
2019-05-20T06:25:54.164Z,100371.95
2019-05-20T06:28:23.912Z,100370.47
2019-05-20T06:30:53.974Z,100370.03
2019-05-20T06:33:23.794Z,100377.29
2019-05-20T06:35:53.649Z,100376.34
2019-05-20T06:38:35.534Z,100382.77
2019-05-20T06:41:07.544Z,100380.30
2019-05-20T06:43:37.271Z,100381.20
2019-05-20T06:46:07.722Z,100386.20
2019-05-20T06:48:39.590Z,100390.23
2019-05-20T06:51:09.535Z,100395.59
2019-05-20T06:53:39.201Z,100397.13
2019-05-20T06:56:08.926Z,100401.98
2019-05-20T06:58:38.610Z,100393.02
2019-05-20T07:01:08.317Z,100389.59
2019-05-20T07:03:38.058Z,100391.08
2019-05-20T07:06:07.920Z,100395.28
2019-05-20T07:08:37.685Z,100393.80
2019-05-20T07:11:07.509Z,100406.11
2019-05-20T07:13:38.046Z,100409.91
2019-05-20T07:16:08.276Z,100414.48
2019-05-20T07:18:37.993Z,100418.59
2019-05-20T07:21:07.717Z,100420.66
2019-05-20T07:23:37.375Z,100422.88
2019-05-20T07:26:07.243Z,100423.23
2019-05-20T07:28:36.981Z,100428.30
2019-05-20T07:31:06.917Z,100428.41
2019-05-20T07:33:36.651Z,100431.02
2019-05-20T07:36:10.002Z,100432.77
2019-05-20T07:38:38.100Z,100424.78
2019-05-20T07:41:07.852Z,100424.86
2019-05-20T07:43:37.649Z,100425.55
2019-05-20T07:46:09.275Z,100427.30
2019-05-20T07:48:40.303Z,100422.91
2019-05-20T07:51:12.768Z,100425.69
2019-05-20T07:53:43.771Z,100421.77
2019-05-20T07:56:18.137Z,100427.54
2019-05-20T07:58:52.759Z,100430.34
2019-05-20T08:01:22.893Z,100419.50
2019-05-20T08:03:52.763Z,100427.69
2019-05-20T08:06:22.677Z,100420.00
2019-05-20T08:08:52.547Z,100422.71
2019-05-20T08:11:22.536Z,100427.13
2019-05-20T08:13:52.458Z,100423.72
2019-05-20T08:16:22.537Z,100423.25
2019-05-20T08:18:52.457Z,100432.70
2019-05-20T08:21:22.311Z,100431.64
2019-05-20T08:23:52.023Z,100438.00
2019-05-20T08:26:21.832Z,100443.52
2019-05-20T08:28:51.621Z,100445.55
2019-05-20T08:31:21.612Z,100442.39
2019-05-20T08:33:51.468Z,100450.72
2019-05-20T08:36:21.237Z,100451.20
2019-05-20T08:38:51.014Z,100453.08
2019-05-20T08:41:20.792Z,100456.11
2019-05-20T08:43:50.554Z,100450.37
2019-05-20T08:46:20.706Z,100452.00
2019-05-20T08:48:50.394Z,100448.51
2019-05-20T08:51:20.235Z,100447.95
2019-05-20T08:53:49.965Z,100447.90
2019-05-20T08:56:19.636Z,100459.30
2019-05-20T08:58:49.509Z,100455.16
2019-05-20T09:01:19.739Z,100455.20
2019-05-20T09:03:49.560Z,100455.88
2019-05-20T09:06:20.720Z,100465.97
2019-05-20T09:08:50.765Z,100467.31
2019-05-20T09:11:20.562Z,100462.41
2019-05-20T09:13:50.224Z,100462.02
2019-05-20T09:16:20.050Z,100463.89
2019-05-20T09:18:49.692Z,100461.44
2019-05-20T09:21:19.370Z,100458.96
2019-05-20T09:23:49.248Z,100458.19
2019-05-20T09:26:19.454Z,100458.22
2019-05-20T09:28:49.542Z,100460.77
2019-05-20T09:31:19.861Z,100455.06
2019-05-20T09:33:50.165Z,100458.31
2019-05-20T09:36:19.900Z,100460.55
2019-05-20T09:38:49.596Z,100461.59
2019-05-20T09:41:19.284Z,100460.70
2019-05-20T09:43:49.132Z,100452.14
2019-05-20T09:46:18.832Z,100457.56
2019-05-20T09:48:48.553Z,100448.98
2019-05-20T09:51:18.303Z,100445.64
2019-05-20T09:53:48.093Z,100453.16
2019-05-20T09:56:18.152Z,100443.86
2019-05-20T09:58:47.900Z,100447.00
2019-05-20T10:01:17.654Z,100454.64
2019-05-20T10:03:47.434Z,100457.67
2019-05-20T10:06:17.589Z,100456.76
2019-05-20T10:08:47.410Z,100462.80
2019-05-20T10:11:17.187Z,100455.30
2019-05-20T10:13:46.969Z,100454.17
2019-05-20T10:16:16.781Z,100460.02
2019-05-20T10:18:46.505Z,100463.47
2019-05-20T10:21:16.291Z,100461.45
2019-05-20T10:23:45.965Z,100466.84
2019-05-20T10:26:16.037Z,100462.69
2019-05-20T10:28:47.415Z,100459.64
2019-05-20T10:31:17.778Z,100460.33
2019-05-20T10:33:47.536Z,100459.97
2019-05-20T10:36:18.905Z,100464.58
2019-05-20T10:38:58.490Z,100459.89
2019-05-20T10:41:20.675Z,100471.10
2019-05-20T10:43:50.393Z,100479.61
2019-05-20T10:46:20.129Z,100483.55
2019-05-20T10:48:49.981Z,100489.36
2019-05-20T10:51:19.720Z,100488.78
2019-05-20T10:53:49.474Z,100488.75
2019-05-20T10:56:19.151Z,100485.88
2019-05-20T10:58:48.867Z,100484.22
2019-05-20T11:01:18.866Z,100492.97
2019-05-20T11:03:48.628Z,100493.41
2019-05-20T11:06:18.380Z,100488.94
2019-05-20T11:08:48.152Z,100494.66
2019-05-20T11:11:17.901Z,100497.27
2019-05-20T11:13:47.644Z,100493.09
2019-05-20T11:16:17.471Z,100496.22
2019-05-20T11:18:47.154Z,100495.58
2019-05-20T11:21:16.914Z,100501.38
2019-05-20T11:23:46.742Z,100502.03
2019-05-20T11:26:16.551Z,100512.17
2019-05-20T11:28:47.242Z,100505.91
2019-05-20T11:31:16.966Z,100514.05
2019-05-20T11:33:46.640Z,100512.64
2019-05-20T11:36:16.465Z,100505.85
2019-05-20T11:38:46.434Z,100512.16
2019-05-20T11:41:16.132Z,100512.61
2019-05-20T11:43:45.933Z,100519.34
2019-05-20T11:46:15.896Z,100516.67
2019-05-20T11:48:45.880Z,100516.58
2019-05-20T11:51:15.535Z,100520.84
2019-05-20T11:53:45.335Z,100511.06
2019-05-20T11:56:15.085Z,100514.65
2019-05-20T11:58:44.924Z,100513.90
2019-05-20T12:01:16.068Z,100510.41
2019-05-20T12:03:45.939Z,100514.34
2019-05-20T12:06:15.667Z,100506.81
2019-05-20T12:08:45.694Z,100511.98
2019-05-20T12:11:15.394Z,100506.25
2019-05-20T12:13:45.173Z,100510.18
2019-05-20T12:16:14.867Z,100517.02
2019-05-20T12:18:45.210Z,100513.11
2019-05-20T12:21:15.014Z,100516.23
2019-05-20T12:23:44.703Z,100515.46
2019-05-20T12:26:14.447Z,100515.56
2019-05-20T12:28:44.337Z,100509.52
2019-05-20T12:31:14.153Z,100504.46
2019-05-20T12:33:44.787Z,100506.27
2019-05-20T12:36:14.588Z,100501.98
2019-05-20T12:38:44.362Z,100503.78
2019-05-20T12:41:14.086Z,100501.64
2019-05-20T12:43:44.843Z,100506.80
2019-05-20T12:46:15.032Z,100510.06
2019-05-20T12:48:44.759Z,100505.81
2019-05-20T12:51:14.896Z,100513.56
2019-05-20T12:53:44.940Z,100508.84
2019-05-20T12:56:14.652Z,100510.77
2019-05-20T12:58:44.360Z,100513.89
2019-05-20T13:01:14.050Z,100509.08
2019-05-20T13:03:43.740Z,100503.80
2019-05-20T13:06:13.484Z,100505.27
2019-05-20T13:08:43.377Z,100501.67
2019-05-20T13:11:13.149Z,100501.11
2019-05-20T13:13:42.824Z,100500.31
2019-05-20T13:16:12.607Z,100504.47
2019-05-20T13:18:55.050Z,100496.27
2019-05-20T13:21:13.790Z,100498.98
2019-05-20T13:23:43.553Z,100497.16
2019-05-20T13:26:13.391Z,100497.81
2019-05-20T13:28:43.246Z,100494.33
2019-05-20T13:31:13.004Z,100494.46
2019-05-20T13:33:42.893Z,100492.08
2019-05-20T13:36:12.620Z,100495.89
2019-05-20T13:38:42.470Z,100490.84
2019-05-20T13:41:12.397Z,100485.41
2019-05-20T13:43:42.070Z,100493.09
2019-05-20T13:46:11.806Z,100492.53
2019-05-20T13:48:41.653Z,100488.28
2019-05-20T13:51:11.403Z,100494.96
2019-05-20T13:53:41.146Z,100493.56
2019-05-20T13:56:10.844Z,100498.50
2019-05-20T13:58:40.574Z,100493.88
2019-05-20T14:01:10.310Z,100501.94
2019-05-20T14:03:41.157Z,100495.41
2019-05-20T14:06:10.961Z,100499.11
2019-05-20T14:08:40.859Z,100495.06
2019-05-20T14:11:10.590Z,100492.81
2019-05-20T14:13:40.442Z,100493.38
2019-05-20T14:16:10.194Z,100488.42
2019-05-20T14:18:39.927Z,100492.84
2019-05-20T14:21:09.662Z,100492.05
2019-05-20T14:23:39.381Z,100493.33
2019-05-20T14:26:09.095Z,100494.20
2019-05-20T14:28:38.842Z,100494.72
2019-05-20T14:31:08.886Z,100491.50
2019-05-20T14:33:38.546Z,100491.95
2019-05-20T14:36:08.317Z,100484.86
2019-05-20T14:38:38.226Z,100498.66
2019-05-20T14:41:20.961Z,100496.66
2019-05-20T14:43:39.775Z,100494.30
2019-05-20T14:46:09.552Z,100501.77
2019-05-20T14:48:39.278Z,100494.45
2019-05-20T14:51:09.033Z,100496.03
2019-05-20T14:53:38.859Z,100502.12
2019-05-20T14:56:08.631Z,100496.17
2019-05-20T14:58:38.362Z,100499.42
2019-05-20T15:01:08.028Z,100500.45
2019-05-20T15:03:37.828Z,100498.73
2019-05-20T15:06:07.784Z,100491.09
2019-05-20T15:08:37.472Z,100492.80
2019-05-20T15:11:07.490Z,100488.28
2019-05-20T15:13:37.455Z,100484.36
2019-05-20T15:16:07.242Z,100494.70
2019-05-20T15:18:37.000Z,100491.34
2019-05-20T15:21:06.853Z,100489.42
2019-05-20T15:23:36.758Z,100487.27
2019-05-20T15:26:06.804Z,100494.47
2019-05-20T15:28:36.799Z,100492.78
2019-05-20T15:31:06.571Z,100494.47
2019-05-20T15:33:36.358Z,100498.05
2019-05-20T15:36:06.464Z,100490.52
2019-05-20T15:38:36.329Z,100484.72
2019-05-20T15:41:06.277Z,100492.68
2019-05-20T15:43:35.938Z,100488.94
2019-05-20T15:46:05.790Z,100489.84
2019-05-20T15:48:35.585Z,100488.80
2019-05-20T15:51:05.508Z,100490.88
2019-05-20T15:53:35.254Z,100488.08
2019-05-20T15:56:05.059Z,100493.30
2019-05-20T15:58:34.853Z,100483.65
2019-05-20T16:01:04.719Z,100486.13
2019-05-20T16:03:34.626Z,100488.19
2019-05-20T16:06:04.705Z,100489.66
2019-05-20T16:08:34.624Z,100484.47
2019-05-20T16:11:06.890Z,100487.52
2019-05-20T16:13:35.802Z,100479.75
2019-05-20T16:16:06.287Z,100478.85
2019-05-20T16:18:36.127Z,100478.09
2019-05-20T16:21:06.213Z,100487.05
2019-05-20T16:23:36.761Z,100480.20
2019-05-20T16:26:06.716Z,100480.77
2019-05-20T16:28:36.497Z,100478.09
2019-05-20T16:31:07.348Z,100483.68
2019-05-20T16:33:37.196Z,100481.78
2019-05-20T16:36:07.085Z,100483.25
2019-05-20T16:38:36.843Z,100497.61
2019-05-20T16:41:06.695Z,100490.88
2019-05-20T16:43:36.369Z,100484.25
2019-05-20T16:46:06.253Z,100479.42
2019-05-20T16:48:36.071Z,100479.88
2019-05-20T16:51:05.979Z,100475.39
2019-05-20T16:53:35.702Z,100483.34
2019-05-20T16:56:05.631Z,100484.02
2019-05-20T16:58:35.462Z,100479.05
2019-05-20T17:01:06.173Z,100483.55
2019-05-20T17:03:36.019Z,100486.34
2019-05-20T17:06:06.024Z,100491.44
2019-05-20T17:08:36.006Z,100485.48
2019-05-20T17:11:05.827Z,100485.28
2019-05-20T17:13:35.634Z,100490.44
2019-05-20T17:16:05.540Z,100490.20
2019-05-20T17:18:35.477Z,100487.94
2019-05-20T17:21:05.298Z,100502.18
2019-05-20T17:23:34.971Z,100505.33
2019-05-20T17:26:04.971Z,100504.10
2019-05-20T17:28:34.774Z,100509.67
2019-05-20T17:31:04.716Z,100505.21
2019-05-20T17:33:34.387Z,100510.91
2019-05-20T17:36:04.231Z,100513.74
2019-05-20T17:38:34.060Z,100514.14
2019-05-20T17:41:03.995Z,100516.20
2019-05-20T17:43:33.765Z,100519.28
2019-05-20T17:46:03.681Z,100512.24
2019-05-20T17:48:33.495Z,100508.08
2019-05-20T17:51:03.332Z,100510.28
2019-05-20T17:53:33.108Z,100520.04
2019-05-20T17:56:02.942Z,100526.01
2019-05-20T17:58:32.631Z,100523.10
2019-05-20T18:01:14.784Z,100525.17
2019-05-20T18:03:33.857Z,100523.83
2019-05-20T18:06:03.814Z,100524.04
2019-05-20T18:08:35.213Z,100530.55
2019-05-20T18:11:05.006Z,100523.89
2019-05-20T18:13:34.799Z,100536.52
2019-05-20T18:16:04.673Z,100543.41
2019-05-20T18:18:34.402Z,100549.46
2019-05-20T18:21:04.219Z,100551.27
2019-05-20T18:23:33.914Z,100557.14
2019-05-20T18:26:03.894Z,100554.90
2019-05-20T18:28:33.703Z,100550.02
2019-05-20T18:31:03.598Z,100555.51
2019-05-20T18:33:33.490Z,100553.62
2019-05-20T18:36:03.452Z,100556.53
2019-05-20T18:38:33.116Z,100558.89
2019-05-20T18:41:02.868Z,100552.16
2019-05-20T18:43:32.650Z,100558.20
2019-05-20T18:46:02.460Z,100562.78
2019-05-20T18:48:32.340Z,100565.56
2019-05-20T18:51:02.037Z,100556.15
2019-05-20T18:53:31.723Z,100554.37
2019-05-20T18:56:03.193Z,100553.92
2019-05-20T18:58:33.008Z,100564.20
2019-05-20T19:01:02.789Z,100560.58
2019-05-20T19:03:33.486Z,100560.15
2019-05-20T19:06:03.878Z,100556.55
2019-05-20T19:08:34.250Z,100564.27
2019-05-20T19:11:04.179Z,100564.25
2019-05-20T19:13:33.980Z,100564.53
2019-05-20T19:16:03.881Z,100556.92
2019-05-20T19:18:33.719Z,100564.86
2019-05-20T19:21:03.564Z,100563.92
2019-05-20T19:23:33.545Z,100573.20
2019-05-20T19:26:03.340Z,100571.72
2019-05-20T19:28:33.223Z,100573.86
2019-05-20T19:31:03.121Z,100580.58
2019-05-20T19:33:32.881Z,100577.09
2019-05-20T19:36:02.681Z,100576.22
2019-05-20T19:38:34.910Z,100565.41
2019-05-20T19:41:04.006Z,100567.69
2019-05-20T19:43:33.719Z,100572.98
2019-05-20T19:46:03.603Z,100565.33
2019-05-20T19:48:33.367Z,100569.61
2019-05-20T19:51:03.371Z,100569.14
2019-05-20T19:53:33.146Z,100572.11
2019-05-20T19:56:02.825Z,100576.27
2019-05-20T19:58:32.586Z,100579.02
2019-05-20T20:01:02.282Z,100583.19
2019-05-20T20:03:32.143Z,100579.95
2019-05-20T20:06:01.813Z,100573.37
2019-05-20T20:08:31.629Z,100575.80
2019-05-20T20:11:01.293Z,100581.16
2019-05-20T20:13:33.984Z,100585.98
2019-05-20T20:16:02.401Z,100586.75
2019-05-20T20:18:32.568Z,100591.98
2019-05-20T20:21:02.388Z,100588.75
2019-05-20T20:23:32.282Z,100593.22
2019-05-20T20:26:02.225Z,100585.34
2019-05-20T20:28:32.018Z,100597.88
2019-05-20T20:31:01.853Z,100600.95
2019-05-20T20:33:31.687Z,100606.27
2019-05-20T20:36:01.632Z,100601.47
2019-05-20T20:38:31.521Z,100607.39
2019-05-20T20:41:01.308Z,100607.57
2019-05-20T20:43:32.248Z,100611.92
2019-05-20T20:46:02.907Z,100604.92
2019-05-20T20:48:32.666Z,100607.24
2019-05-20T20:51:02.388Z,100606.87
2019-05-20T20:53:32.170Z,100612.70
2019-05-20T20:56:02.006Z,100616.00
2019-05-20T20:58:31.912Z,100614.70
2019-05-20T21:01:01.568Z,100614.95
2019-05-20T21:03:31.275Z,100613.35
2019-05-20T21:06:00.957Z,100615.86
2019-05-20T21:08:30.677Z,100626.31
2019-05-20T21:11:00.951Z,100629.25
2019-05-20T21:13:30.660Z,100626.92
2019-05-20T21:16:00.377Z,100619.61
2019-05-20T21:18:30.146Z,100623.14
2019-05-20T21:20:59.822Z,100630.83
2019-05-20T21:23:29.827Z,100630.45
2019-05-20T21:25:59.580Z,100620.67
2019-05-20T21:28:29.548Z,100633.25
2019-05-20T21:30:59.335Z,100631.84
2019-05-20T21:33:29.025Z,100634.05
2019-05-20T21:35:58.806Z,100629.86
2019-05-20T21:38:28.466Z,100627.40
2019-05-20T21:40:58.511Z,100626.86
2019-05-20T21:43:28.184Z,100624.66
2019-05-20T21:45:57.902Z,100630.56
2019-05-20T21:48:27.694Z,100621.33
2019-05-20T21:50:57.525Z,100625.19
2019-05-20T21:53:27.331Z,100623.37
2019-05-20T21:55:57.257Z,100627.08
2019-05-20T21:58:27.242Z,100628.27
2019-05-20T22:00:58.786Z,100626.86
2019-05-20T22:03:28.745Z,100625.27
2019-05-20T22:05:58.804Z,100618.12
2019-05-20T22:08:28.604Z,100618.12
2019-05-20T22:10:58.368Z,100621.02
2019-05-20T22:13:28.257Z,100623.56
2019-05-20T22:15:57.916Z,100617.50
2019-05-20T22:18:27.629Z,100616.37
2019-05-20T22:20:57.308Z,100619.31
2019-05-20T22:23:28.723Z,100611.16
2019-05-20T22:25:58.376Z,100617.88
2019-05-20T22:28:28.100Z,100611.91
2019-05-20T22:30:57.858Z,100612.62
2019-05-20T22:33:40.491Z,100617.70
2019-05-20T22:35:58.992Z,100619.61
2019-05-20T22:38:29.813Z,100619.23
2019-05-20T22:40:59.642Z,100619.55
2019-05-20T22:43:29.453Z,100611.14
2019-05-20T22:45:59.362Z,100620.08
2019-05-20T22:48:29.131Z,100617.08
2019-05-20T22:50:58.819Z,100618.80
2019-05-20T22:53:28.593Z,100616.91
2019-05-20T22:55:59.309Z,100624.17
2019-05-20T22:58:29.011Z,100629.63
2019-05-20T23:00:58.717Z,100631.72
2019-05-20T23:03:28.853Z,100633.93
2019-05-20T23:05:58.686Z,100635.77
2019-05-20T23:08:29.069Z,100640.43
2019-05-20T23:10:58.805Z,100644.52
2019-05-20T23:13:28.637Z,100645.56
2019-05-20T23:15:58.356Z,100648.13
2019-05-20T23:18:28.230Z,100650.27
2019-05-20T23:20:57.985Z,100653.95
2019-05-20T23:23:27.674Z,100649.63
2019-05-20T23:25:57.504Z,100648.70
2019-05-20T23:28:27.218Z,100644.86
2019-05-20T23:30:56.916Z,100647.63
2019-05-20T23:33:26.779Z,100649.14
2019-05-20T23:35:56.456Z,100645.38
2019-05-20T23:38:27.477Z,100647.66
2019-05-20T23:40:57.185Z,100642.22
2019-05-20T23:43:26.866Z,100643.39
2019-05-20T23:45:57.523Z,100644.16
2019-05-20T23:48:27.244Z,100647.09
2019-05-20T23:50:56.948Z,100645.75
2019-05-20T23:53:26.702Z,100639.74
2019-05-20T23:55:56.498Z,100636.58
2019-05-20T23:58:26.320Z,100644.87
